sensor_id;sensor_type;location;lat;lon;timestamp;pressure;altitude;pressure_sealevel;temperature
66299;BMP180;53098;47.658;8.578;2023-09-19T00:00:47;96289.00;;;17.50
66299;BMP180;53098;47.658;8.578;2023-09-19T00:03:13;96298.00;;;17.50
66299;BMP180;53098;47.658;8.578;2023-09-19T00:05:39;96297.00;;;17.60
66299;BMP180;53098;47.658;8.578;2023-09-19T00:08:05;96301.00;;;17.50
66299;BMP180;53098;47.658;8.578;2023-09-19T00:10:32;96294.00;;;17.40
66299;BMP180;53098;47.658;8.578;2023-09-19T00:12:58;96302.00;;;17.30
66299;BMP180;53098;47.658;8.578;2023-09-19T00:15:24;96293.00;;;17.30
66299;BMP180;53098;47.658;8.578;2023-09-19T00:17:51;96309.00;;;17.40
66299;BMP180;53098;47.658;8.578;2023-09-19T00:20:17;96296.00;;;17.40
66299;BMP180;53098;47.658;8.578;2023-09-19T00:22:42;96293.00;;;17.30
66299;BMP180;53098;47.658;8.578;2023-09-19T00:25:08;96289.00;;;17.40
66299;BMP180;53098;47.658;8.578;2023-09-19T00:27:34;96290.00;;;17.40
66299;BMP180;53098;47.658;8.578;2023-09-19T00:29:59;96298.00;;;17.40
66299;BMP180;53098;47.658;8.578;2023-09-19T00:32:24;96304.00;;;17.40
66299;BMP180;53098;47.658;8.578;2023-09-19T00:34:50;96311.00;;;17.40
66299;BMP180;53098;47.658;8.578;2023-09-19T00:37:15;96309.00;;;17.30
66299;BMP180;53098;47.658;8.578;2023-09-19T00:39:41;96323.00;;;17.30
66299;BMP180;53098;47.658;8.578;2023-09-19T00:42:06;96318.00;;;17.40
66299;BMP180;53098;47.658;8.578;2023-09-19T00:44:31;96322.00;;;17.40
66299;BMP180;53098;47.658;8.578;2023-09-19T00:46:57;96316.00;;;17.30
66299;BMP180;53098;47.658;8.578;2023-09-19T00:49:22;96315.00;;;17.40
66299;BMP180;53098;47.658;8.578;2023-09-19T00:51:48;96319.00;;;17.40
66299;BMP180;53098;47.658;8.578;2023-09-19T00:54:15;96312.00;;;17.40
66299;BMP180;53098;47.658;8.578;2023-09-19T00:56:41;96319.00;;;17.50
66299;BMP180;53098;47.658;8.578;2023-09-19T00:59:07;96317.00;;;17.40
66299;BMP180;53098;47.658;8.578;2023-09-19T01:01:32;96317.00;;;17.40
66299;BMP180;53098;47.658;8.578;2023-09-19T01:03:58;96323.00;;;17.30
66299;BMP180;53098;47.658;8.578;2023-09-19T01:06:23;96322.00;;;17.30
66299;BMP180;53098;47.658;8.578;2023-09-19T01:08:49;96328.00;;;17.30
66299;BMP180;53098;47.658;8.578;2023-09-19T01:11:20;96336.00;;;17.30
66299;BMP180;53098;47.658;8.578;2023-09-19T01:17:09;96331.00;;;17.30
66299;BMP180;53098;47.658;8.578;2023-09-19T01:22:36;96337.00;;;17.40
66299;BMP180;53098;47.658;8.578;2023-09-19T01:30:27;96343.00;;;17.30
66299;BMP180;53098;47.658;8.578;2023-09-19T01:32:57;96335.00;;;17.30
66299;BMP180;53098;47.658;8.578;2023-09-19T01:35:22;96333.00;;;17.30
66299;BMP180;53098;47.658;8.578;2023-09-19T01:37:48;96331.00;;;17.20
66299;BMP180;53098;47.658;8.578;2023-09-19T01:40:15;96335.00;;;17.20
66299;BMP180;53098;47.658;8.578;2023-09-19T01:45:29;96336.00;;;17.10
66299;BMP180;53098;47.658;8.578;2023-09-19T01:48:05;96335.00;;;17.20
66299;BMP180;53098;47.658;8.578;2023-09-19T01:51:06;96342.00;;;17.20
66299;BMP180;53098;47.658;8.578;2023-09-19T01:54:08;96346.00;;;17.10
66299;BMP180;53098;47.658;8.578;2023-09-19T01:56:44;96340.00;;;17.20
66299;BMP180;53098;47.658;8.578;2023-09-19T01:59:14;96342.00;;;17.20
66299;BMP180;53098;47.658;8.578;2023-09-19T02:01:42;96341.00;;;17.30
66299;BMP180;53098;47.658;8.578;2023-09-19T02:04:09;96341.00;;;17.30
66299;BMP180;53098;47.658;8.578;2023-09-19T02:06:35;96357.00;;;17.30
66299;BMP180;53098;47.658;8.578;2023-09-19T02:09:04;96353.00;;;17.30
66299;BMP180;53098;47.658;8.578;2023-09-19T02:11:29;96353.00;;;17.40
66299;BMP180;53098;47.658;8.578;2023-09-19T02:13:55;96354.00;;;17.30
66299;BMP180;53098;47.658;8.578;2023-09-19T02:16:20;96356.00;;;17.40
66299;BMP180;53098;47.658;8.578;2023-09-19T02:18:49;96353.00;;;17.40
66299;BMP180;53098;47.658;8.578;2023-09-19T02:21:15;96352.00;;;17.40
66299;BMP180;53098;47.658;8.578;2023-09-19T02:23:41;96359.00;;;17.40
66299;BMP180;53098;47.658;8.578;2023-09-19T02:26:06;96361.00;;;17.40
66299;BMP180;53098;47.658;8.578;2023-09-19T02:28:32;96350.00;;;17.40
66299;BMP180;53098;47.658;8.578;2023-09-19T02:31:00;96356.00;;;17.50
66299;BMP180;53098;47.658;8.578;2023-09-19T02:33:26;96352.00;;;17.40
66299;BMP180;53098;47.658;8.578;2023-09-19T02:35:55;96349.00;;;17.40
66299;BMP180;53098;47.658;8.578;2023-09-19T02:38:21;96361.00;;;17.40
66299;BMP180;53098;47.658;8.578;2023-09-19T02:40:47;96361.00;;;17.40
66299;BMP180;53098;47.658;8.578;2023-09-19T02:43:12;96360.00;;;17.40
66299;BMP180;53098;47.658;8.578;2023-09-19T02:45:38;96354.00;;;17.30
66299;BMP180;53098;47.658;8.578;2023-09-19T02:48:03;96361.00;;;17.10
66299;BMP180;53098;47.658;8.578;2023-09-19T02:50:29;96352.00;;;17.20
66299;BMP180;53098;47.658;8.578;2023-09-19T02:52:55;96360.00;;;17.20
66299;BMP180;53098;47.658;8.578;2023-09-19T02:55:20;96355.00;;;17.20
66299;BMP180;53098;47.658;8.578;2023-09-19T02:57:50;96357.00;;;17.10
66299;BMP180;53098;47.658;8.578;2023-09-19T03:00:18;96360.00;;;17.20
66299;BMP180;53098;47.658;8.578;2023-09-19T03:02:44;96352.00;;;17.20
66299;BMP180;53098;47.658;8.578;2023-09-19T03:05:09;96349.00;;;17.20
66299;BMP180;53098;47.658;8.578;2023-09-19T03:07:35;96354.00;;;17.20
66299;BMP180;53098;47.658;8.578;2023-09-19T03:10:00;96354.00;;;17.10
66299;BMP180;53098;47.658;8.578;2023-09-19T03:12:26;96354.00;;;17.20
66299;BMP180;53098;47.658;8.578;2023-09-19T03:14:52;96356.00;;;17.20
66299;BMP180;53098;47.658;8.578;2023-09-19T03:17:17;96360.00;;;17.30
66299;BMP180;53098;47.658;8.578;2023-09-19T03:19:43;96353.00;;;17.30
66299;BMP180;53098;47.658;8.578;2023-09-19T03:22:08;96354.00;;;17.30
66299;BMP180;53098;47.658;8.578;2023-09-19T03:24:33;96351.00;;;17.30
66299;BMP180;53098;47.658;8.578;2023-09-19T03:26:59;96354.00;;;17.30
66299;BMP180;53098;47.658;8.578;2023-09-19T03:29:25;96354.00;;;17.40
66299;BMP180;53098;47.658;8.578;2023-09-19T03:31:50;96353.00;;;17.30
66299;BMP180;53098;47.658;8.578;2023-09-19T03:34:16;96364.00;;;17.20
66299;BMP180;53098;47.658;8.578;2023-09-19T03:36:41;96356.00;;;17.30
66299;BMP180;53098;47.658;8.578;2023-09-19T03:39:06;96348.00;;;17.20
66299;BMP180;53098;47.658;8.578;2023-09-19T03:41:32;96349.00;;;17.20
66299;BMP180;53098;47.658;8.578;2023-09-19T03:43:57;96347.00;;;17.30
66299;BMP180;53098;47.658;8.578;2023-09-19T03:46:23;96345.00;;;17.30
66299;BMP180;53098;47.658;8.578;2023-09-19T03:48:48;96344.00;;;17.30
66299;BMP180;53098;47.658;8.578;2023-09-19T03:51:13;96350.00;;;17.30
66299;BMP180;53098;47.658;8.578;2023-09-19T03:53:39;96347.00;;;17.30
66299;BMP180;53098;47.658;8.578;2023-09-19T03:56:04;96340.00;;;17.30
66299;BMP180;53098;47.658;8.578;2023-09-19T03:58:30;96345.00;;;17.30
66299;BMP180;53098;47.658;8.578;2023-09-19T04:00:56;96363.00;;;17.30
66299;BMP180;53098;47.658;8.578;2023-09-19T04:03:22;96363.00;;;17.30
66299;BMP180;53098;47.658;8.578;2023-09-19T04:05:47;96356.00;;;17.30
66299;BMP180;53098;47.658;8.578;2023-09-19T04:08:13;96351.00;;;17.40
66299;BMP180;53098;47.658;8.578;2023-09-19T04:10:38;96349.00;;;17.40
66299;BMP180;53098;47.658;8.578;2023-09-19T04:13:03;96357.00;;;17.40
66299;BMP180;53098;47.658;8.578;2023-09-19T04:15:29;96367.00;;;17.40
66299;BMP180;53098;47.658;8.578;2023-09-19T04:17:55;96369.00;;;17.40
66299;BMP180;53098;47.658;8.578;2023-09-19T04:20:20;96367.00;;;17.40
66299;BMP180;53098;47.658;8.578;2023-09-19T04:22:46;96368.00;;;17.40
66299;BMP180;53098;47.658;8.578;2023-09-19T04:25:12;96366.00;;;17.40
66299;BMP180;53098;47.658;8.578;2023-09-19T04:27:37;96374.00;;;17.40
66299;BMP180;53098;47.658;8.578;2023-09-19T04:30:03;96378.00;;;17.40
66299;BMP180;53098;47.658;8.578;2023-09-19T04:32:28;96376.00;;;17.30
66299;BMP180;53098;47.658;8.578;2023-09-19T04:34:54;96372.00;;;17.40
66299;BMP180;53098;47.658;8.578;2023-09-19T04:37:19;96377.00;;;17.40
66299;BMP180;53098;47.658;8.578;2023-09-19T04:39:45;96384.00;;;17.50
66299;BMP180;53098;47.658;8.578;2023-09-19T04:42:10;96382.00;;;17.40
66299;BMP180;53098;47.658;8.578;2023-09-19T04:44:35;96391.00;;;17.40
66299;BMP180;53098;47.658;8.578;2023-09-19T04:47:01;96393.00;;;17.40
66299;BMP180;53098;47.658;8.578;2023-09-19T04:49:26;96400.00;;;17.40
66299;BMP180;53098;47.658;8.578;2023-09-19T04:51:52;96391.00;;;17.40
66299;BMP180;53098;47.658;8.578;2023-09-19T04:54:17;96392.00;;;17.40
66299;BMP180;53098;47.658;8.578;2023-09-19T04:56:43;96405.00;;;17.40
66299;BMP180;53098;47.658;8.578;2023-09-19T04:59:08;96404.00;;;17.30
66299;BMP180;53098;47.658;8.578;2023-09-19T05:01:34;96413.00;;;17.40
66299;BMP180;53098;47.658;8.578;2023-09-19T05:03:59;96415.00;;;17.40
66299;BMP180;53098;47.658;8.578;2023-09-19T05:06:25;96418.00;;;17.40
66299;BMP180;53098;47.658;8.578;2023-09-19T05:08:50;96419.00;;;17.30
66299;BMP180;53098;47.658;8.578;2023-09-19T05:11:16;96421.00;;;17.20
66299;BMP180;53098;47.658;8.578;2023-09-19T05:13:41;96419.00;;;17.20
66299;BMP180;53098;47.658;8.578;2023-09-19T05:16:07;96413.00;;;17.30
66299;BMP180;53098;47.658;8.578;2023-09-19T05:18:32;96425.00;;;17.20
66299;BMP180;53098;47.658;8.578;2023-09-19T05:20:58;96430.00;;;17.10
66299;BMP180;53098;47.658;8.578;2023-09-19T05:23:23;96429.00;;;17.20
66299;BMP180;53098;47.658;8.578;2023-09-19T05:25:48;96432.00;;;17.10
66299;BMP180;53098;47.658;8.578;2023-09-19T05:28:14;96428.00;;;17.10
66299;BMP180;53098;47.658;8.578;2023-09-19T05:30:39;96426.00;;;17.00
66299;BMP180;53098;47.658;8.578;2023-09-19T05:33:05;96428.00;;;17.00
66299;BMP180;53098;47.658;8.578;2023-09-19T05:35:31;96438.00;;;17.00
66299;BMP180;53098;47.658;8.578;2023-09-19T05:37:57;96437.00;;;17.00
66299;BMP180;53098;47.658;8.578;2023-09-19T05:40:22;96438.00;;;17.10
66299;BMP180;53098;47.658;8.578;2023-09-19T05:42:48;96433.00;;;17.10
66299;BMP180;53098;47.658;8.578;2023-09-19T05:45:13;96437.00;;;17.10
66299;BMP180;53098;47.658;8.578;2023-09-19T05:47:40;96436.00;;;17.10
66299;BMP180;53098;47.658;8.578;2023-09-19T05:50:06;96433.00;;;17.10
66299;BMP180;53098;47.658;8.578;2023-09-19T05:52:31;96433.00;;;17.10
66299;BMP180;53098;47.658;8.578;2023-09-19T05:54:57;96429.00;;;17.00
66299;BMP180;53098;47.658;8.578;2023-09-19T05:57:22;96433.00;;;17.10
66299;BMP180;53098;47.658;8.578;2023-09-19T05:59:48;96439.00;;;17.20
66299;BMP180;53098;47.658;8.578;2023-09-19T06:02:13;96435.00;;;17.30
66299;BMP180;53098;47.658;8.578;2023-09-19T06:04:38;96436.00;;;17.20
66299;BMP180;53098;47.658;8.578;2023-09-19T06:07:04;96435.00;;;17.30
66299;BMP180;53098;47.658;8.578;2023-09-19T06:09:29;96437.00;;;17.30
66299;BMP180;53098;47.658;8.578;2023-09-19T06:11:55;96440.00;;;17.30
66299;BMP180;53098;47.658;8.578;2023-09-19T06:14:20;96439.00;;;17.40
66299;BMP180;53098;47.658;8.578;2023-09-19T06:16:46;96441.00;;;17.50
66299;BMP180;53098;47.658;8.578;2023-09-19T06:19:11;96454.00;;;17.50
66299;BMP180;53098;47.658;8.578;2023-09-19T06:21:37;96458.00;;;17.50
66299;BMP180;53098;47.658;8.578;2023-09-19T06:24:02;96463.00;;;17.60
66299;BMP180;53098;47.658;8.578;2023-09-19T06:26:28;96466.00;;;17.50
66299;BMP180;53098;47.658;8.578;2023-09-19T06:28:54;96467.00;;;17.50
66299;BMP180;53098;47.658;8.578;2023-09-19T06:31:19;96465.00;;;17.40
66299;BMP180;53098;47.658;8.578;2023-09-19T06:33:45;96465.00;;;17.40
66299;BMP180;53098;47.658;8.578;2023-09-19T06:36:10;96464.00;;;17.50
66299;BMP180;53098;47.658;8.578;2023-09-19T06:38:35;96457.00;;;17.60
66299;BMP180;53098;47.658;8.578;2023-09-19T06:41:02;96469.00;;;17.60
66299;BMP180;53098;47.658;8.578;2023-09-19T06:43:27;96461.00;;;17.60
66299;BMP180;53098;47.658;8.578;2023-09-19T06:45:53;96487.00;;;17.60
66299;BMP180;53098;47.658;8.578;2023-09-19T06:48:19;96476.00;;;17.60
66299;BMP180;53098;47.658;8.578;2023-09-19T06:50:44;96470.00;;;17.60
66299;BMP180;53098;47.658;8.578;2023-09-19T06:53:10;96483.00;;;17.70
66299;BMP180;53098;47.658;8.578;2023-09-19T06:55:35;96474.00;;;17.60
66299;BMP180;53098;47.658;8.578;2023-09-19T06:58:01;96473.00;;;17.70
66299;BMP180;53098;47.658;8.578;2023-09-19T07:00:27;96477.00;;;17.80
66299;BMP180;53098;47.658;8.578;2023-09-19T07:05:20;96489.00;;;17.70
66299;BMP180;53098;47.658;8.578;2023-09-19T07:07:46;96483.00;;;17.80
66299;BMP180;53098;47.658;8.578;2023-09-19T07:10:11;96492.00;;;17.80
66299;BMP180;53098;47.658;8.578;2023-09-19T07:12:37;96485.00;;;17.80
66299;BMP180;53098;47.658;8.578;2023-09-19T07:15:02;96480.00;;;17.90
66299;BMP180;53098;47.658;8.578;2023-09-19T07:17:28;96483.00;;;18.00
66299;BMP180;53098;47.658;8.578;2023-09-19T07:19:53;96487.00;;;18.00
66299;BMP180;53098;47.658;8.578;2023-09-19T07:22:19;96473.00;;;18.10
66299;BMP180;53098;47.658;8.578;2023-09-19T07:24:44;96483.00;;;18.10
66299;BMP180;53098;47.658;8.578;2023-09-19T07:27:10;96480.00;;;18.20
66299;BMP180;53098;47.658;8.578;2023-09-19T07:29:36;96483.00;;;18.30
66299;BMP180;53098;47.658;8.578;2023-09-19T07:32:01;96490.00;;;18.20
66299;BMP180;53098;47.658;8.578;2023-09-19T07:34:27;96477.00;;;18.40
66299;BMP180;53098;47.658;8.578;2023-09-19T07:36:52;96478.00;;;18.50
66299;BMP180;53098;47.658;8.578;2023-09-19T07:39:17;96498.00;;;18.40
66299;BMP180;53098;47.658;8.578;2023-09-19T07:41:43;96478.00;;;18.40
66299;BMP180;53098;47.658;8.578;2023-09-19T07:44:08;96494.00;;;18.50
66299;BMP180;53098;47.658;8.578;2023-09-19T07:46:34;96499.00;;;18.50
66299;BMP180;53098;47.658;8.578;2023-09-19T07:48:59;96512.00;;;18.60
66299;BMP180;53098;47.658;8.578;2023-09-19T07:51:25;96508.00;;;18.70
66299;BMP180;53098;47.658;8.578;2023-09-19T07:53:50;96517.00;;;18.60
66299;BMP180;53098;47.658;8.578;2023-09-19T07:56:16;96520.00;;;18.60
66299;BMP180;53098;47.658;8.578;2023-09-19T07:58:41;96518.00;;;18.60
66299;BMP180;53098;47.658;8.578;2023-09-19T08:01:07;96517.00;;;18.60
66299;BMP180;53098;47.658;8.578;2023-09-19T08:03:34;96512.00;;;18.70
66299;BMP180;53098;47.658;8.578;2023-09-19T08:06:00;96521.00;;;18.80
66299;BMP180;53098;47.658;8.578;2023-09-19T08:08:26;96506.00;;;18.80
66299;BMP180;53098;47.658;8.578;2023-09-19T08:10:56;96514.00;;;19.00
66299;BMP180;53098;47.658;8.578;2023-09-19T08:13:25;96527.00;;;19.00
66299;BMP180;53098;47.658;8.578;2023-09-19T08:15:51;96524.00;;;18.90
66299;BMP180;53098;47.658;8.578;2023-09-19T08:18:17;96532.00;;;18.90
66299;BMP180;53098;47.658;8.578;2023-09-19T08:20:43;96542.00;;;19.00
66299;BMP180;53098;47.658;8.578;2023-09-19T08:23:09;96538.00;;;19.10
66299;BMP180;53098;47.658;8.578;2023-09-19T08:25:34;96544.00;;;19.00
66299;BMP180;53098;47.658;8.578;2023-09-19T08:28:00;96541.00;;;19.30
66299;BMP180;53098;47.658;8.578;2023-09-19T08:30:26;96538.00;;;19.40
66299;BMP180;53098;47.658;8.578;2023-09-19T08:32:51;96546.00;;;19.50
66299;BMP180;53098;47.658;8.578;2023-09-19T08:35:23;96531.00;;;19.70
66299;BMP180;53098;47.658;8.578;2023-09-19T08:37:48;96535.00;;;19.90
66299;BMP180;53098;47.658;8.578;2023-09-19T08:40:14;96541.00;;;20.10
66299;BMP180;53098;47.658;8.578;2023-09-19T08:42:56;96544.00;;;20.10
66299;BMP180;53098;47.658;8.578;2023-09-19T08:45:23;96546.00;;;20.10
66299;BMP180;53098;47.658;8.578;2023-09-19T08:50:49;96552.00;;;19.80
66299;BMP180;53098;47.658;8.578;2023-09-19T08:53:24;96557.00;;;19.70
66299;BMP180;53098;47.658;8.578;2023-09-19T08:55:51;96557.00;;;19.70
66299;BMP180;53098;47.658;8.578;2023-09-19T08:58:19;96560.00;;;19.60
66299;BMP180;53098;47.658;8.578;2023-09-19T09:00:48;96573.00;;;19.50
66299;BMP180;53098;47.658;8.578;2023-09-19T09:03:14;96552.00;;;19.50
66299;BMP180;53098;47.658;8.578;2023-09-19T09:05:41;96567.00;;;19.60
66299;BMP180;53098;47.658;8.578;2023-09-19T09:08:08;96573.00;;;19.70
66299;BMP180;53098;47.658;8.578;2023-09-19T09:10:33;96566.00;;;19.60
66299;BMP180;53098;47.658;8.578;2023-09-19T09:13:00;96566.00;;;19.80
66299;BMP180;53098;47.658;8.578;2023-09-19T09:15:26;96577.00;;;19.70
66299;BMP180;53098;47.658;8.578;2023-09-19T09:17:51;96581.00;;;19.50
66299;BMP180;53098;47.658;8.578;2023-09-19T09:20:17;96577.00;;;19.50
66299;BMP180;53098;47.658;8.578;2023-09-19T09:22:56;96575.00;;;19.40
66299;BMP180;53098;47.658;8.578;2023-09-19T09:25:22;96578.00;;;19.40
66299;BMP180;53098;47.658;8.578;2023-09-19T09:27:59;96576.00;;;19.20
66299;BMP180;53098;47.658;8.578;2023-09-19T09:30:37;96567.00;;;19.20
66299;BMP180;53098;47.658;8.578;2023-09-19T09:33:10;96559.00;;;19.50
66299;BMP180;53098;47.658;8.578;2023-09-19T09:35:35;96558.00;;;19.80
66299;BMP180;53098;47.658;8.578;2023-09-19T09:38:01;96566.00;;;20.00
66299;BMP180;53098;47.658;8.578;2023-09-19T09:40:45;96560.00;;;20.30
66299;BMP180;53098;47.658;8.578;2023-09-19T09:43:31;96577.00;;;20.40
66299;BMP180;53098;47.658;8.578;2023-09-19T09:46:18;96565.00;;;20.60
66299;BMP180;53098;47.658;8.578;2023-09-19T09:48:44;96572.00;;;20.60
66299;BMP180;53098;47.658;8.578;2023-09-19T09:51:11;96563.00;;;20.50
66299;BMP180;53098;47.658;8.578;2023-09-19T09:53:36;96560.00;;;20.60
66299;BMP180;53098;47.658;8.578;2023-09-19T09:56:08;96569.00;;;20.60
66299;BMP180;53098;47.658;8.578;2023-09-19T09:58:35;96548.00;;;20.80
66299;BMP180;53098;47.658;8.578;2023-09-19T10:01:01;96562.00;;;20.90
66299;BMP180;53098;47.658;8.578;2023-09-19T10:03:34;96554.00;;;20.90
66299;BMP180;53098;47.658;8.578;2023-09-19T10:06:00;96555.00;;;20.80
66299;BMP180;53098;47.658;8.578;2023-09-19T10:08:26;96553.00;;;20.90
66299;BMP180;53098;47.658;8.578;2023-09-19T10:10:51;96550.00;;;21.30
66299;BMP180;53098;47.658;8.578;2023-09-19T10:13:17;96552.00;;;21.20
66299;BMP180;53098;47.658;8.578;2023-09-19T10:15:50;96553.00;;;21.40
66299;BMP180;53098;47.658;8.578;2023-09-19T10:18:26;96556.00;;;21.30
66299;BMP180;53098;47.658;8.578;2023-09-19T10:20:52;96557.00;;;21.20
66299;BMP180;53098;47.658;8.578;2023-09-19T10:23:19;96563.00;;;21.20
66299;BMP180;53098;47.658;8.578;2023-09-19T10:25:46;96549.00;;;21.30
66299;BMP180;53098;47.658;8.578;2023-09-19T10:28:14;96551.00;;;21.60
66299;BMP180;53098;47.658;8.578;2023-09-19T10:30:44;96554.00;;;21.60
66299;BMP180;53098;47.658;8.578;2023-09-19T10:33:11;96549.00;;;21.60
66299;BMP180;53098;47.658;8.578;2023-09-19T10:35:43;96569.00;;;21.70
66299;BMP180;53098;47.658;8.578;2023-09-19T10:38:10;96569.00;;;21.60
66299;BMP180;53098;47.658;8.578;2023-09-19T10:40:38;96563.00;;;21.20
66299;BMP180;53098;47.658;8.578;2023-09-19T10:43:05;96548.00;;;21.10
66299;BMP180;53098;47.658;8.578;2023-09-19T10:45:34;96541.00;;;21.30
66299;BMP180;53098;47.658;8.578;2023-09-19T10:48:03;96543.00;;;21.50
66299;BMP180;53098;47.658;8.578;2023-09-19T10:50:32;96554.00;;;21.50
66299;BMP180;53098;47.658;8.578;2023-09-19T10:53:00;96550.00;;;21.40
66299;BMP180;53098;47.658;8.578;2023-09-19T10:55:28;96546.00;;;21.80
66299;BMP180;53098;47.658;8.578;2023-09-19T10:57:54;96551.00;;;21.70
66299;BMP180;53098;47.658;8.578;2023-09-19T11:00:19;96547.00;;;21.90
66299;BMP180;53098;47.658;8.578;2023-09-19T11:03:19;96550.00;;;22.30
66299;BMP180;53098;47.658;8.578;2023-09-19T11:09:00;96543.00;;;22.50
66299;BMP180;53098;47.658;8.578;2023-09-19T11:30:32;96535.00;;;22.30
66299;BMP180;53098;47.658;8.578;2023-09-19T11:43:46;96523.00;;;21.90
66299;BMP180;53098;47.658;8.578;2023-09-19T11:46:12;96510.00;;;21.90
66299;BMP180;53098;47.658;8.578;2023-09-19T11:48:38;96528.00;;;22.10
66299;BMP180;53098;47.658;8.578;2023-09-19T11:51:13;96517.00;;;22.10
66299;BMP180;53098;47.658;8.578;2023-09-19T11:53:39;96521.00;;;22.10
66299;BMP180;53098;47.658;8.578;2023-09-19T11:56:06;96511.00;;;22.00
66299;BMP180;53098;47.658;8.578;2023-09-19T11:58:31;96504.00;;;22.00
66299;BMP180;53098;47.658;8.578;2023-09-19T12:00:59;96505.00;;;22.00
66299;BMP180;53098;47.658;8.578;2023-09-19T12:03:29;96510.00;;;22.20
66299;BMP180;53098;47.658;8.578;2023-09-19T12:05:55;96511.00;;;22.20
66299;BMP180;53098;47.658;8.578;2023-09-19T12:08:20;96502.00;;;22.10
66299;BMP180;53098;47.658;8.578;2023-09-19T12:10:47;96504.00;;;22.40
66299;BMP180;53098;47.658;8.578;2023-09-19T12:13:19;96508.00;;;22.40
66299;BMP180;53098;47.658;8.578;2023-09-19T12:15:45;96499.00;;;22.40
66299;BMP180;53098;47.658;8.578;2023-09-19T12:18:26;96498.00;;;22.60
66299;BMP180;53098;47.658;8.578;2023-09-19T12:20:51;96500.00;;;22.80
66299;BMP180;53098;47.658;8.578;2023-09-19T12:23:17;96504.00;;;22.90
66299;BMP180;53098;47.658;8.578;2023-09-19T12:25:43;96472.00;;;22.90
66299;BMP180;53098;47.658;8.578;2023-09-19T12:28:09;96483.00;;;23.00
66299;BMP180;53098;47.658;8.578;2023-09-19T12:30:34;96485.00;;;23.00
66299;BMP180;53098;47.658;8.578;2023-09-19T12:33:00;96483.00;;;23.00
66299;BMP180;53098;47.658;8.578;2023-09-19T12:35:30;96489.00;;;22.60
66299;BMP180;53098;47.658;8.578;2023-09-19T12:37:55;96486.00;;;22.20
66299;BMP180;53098;47.658;8.578;2023-09-19T12:40:21;96485.00;;;22.30
66299;BMP180;53098;47.658;8.578;2023-09-19T12:42:48;96467.00;;;22.60
66299;BMP180;53098;47.658;8.578;2023-09-19T12:45:15;96480.00;;;22.20
66299;BMP180;53098;47.658;8.578;2023-09-19T12:51:06;96469.00;;;22.20
66299;BMP180;53098;47.658;8.578;2023-09-19T12:53:45;96457.00;;;22.20
66299;BMP180;53098;47.658;8.578;2023-09-19T12:56:15;96452.00;;;22.60
66299;BMP180;53098;47.658;8.578;2023-09-19T12:58:54;96456.00;;;22.70
66299;BMP180;53098;47.658;8.578;2023-09-19T13:01:20;96469.00;;;22.80
66299;BMP180;53098;47.658;8.578;2023-09-19T13:03:45;96453.00;;;22.80
66299;BMP180;53098;47.658;8.578;2023-09-19T13:06:11;96448.00;;;22.90
66299;BMP180;53098;47.658;8.578;2023-09-19T13:08:40;96461.00;;;22.80
66299;BMP180;53098;47.658;8.578;2023-09-19T13:11:15;96459.00;;;22.60
66299;BMP180;53098;47.658;8.578;2023-09-19T13:13:43;96456.00;;;22.80
66299;BMP180;53098;47.658;8.578;2023-09-19T13:16:10;96445.00;;;22.90
66299;BMP180;53098;47.658;8.578;2023-09-19T13:18:46;96446.00;;;23.30
66299;BMP180;53098;47.658;8.578;2023-09-19T13:21:13;96436.00;;;23.30
66299;BMP180;53098;47.658;8.578;2023-09-19T13:23:39;96425.00;;;23.60
66299;BMP180;53098;47.658;8.578;2023-09-19T13:26:04;96446.00;;;23.60
66299;BMP180;53098;47.658;8.578;2023-09-19T13:28:29;96437.00;;;23.40
66299;BMP180;53098;47.658;8.578;2023-09-19T13:30:55;96432.00;;;23.80
66299;BMP180;53098;47.658;8.578;2023-09-19T13:33:20;96454.00;;;24.00
66299;BMP180;53098;47.658;8.578;2023-09-19T13:35:46;96444.00;;;23.60
66299;BMP180;53098;47.658;8.578;2023-09-19T13:38:11;96441.00;;;23.40
66299;BMP180;53098;47.658;8.578;2023-09-19T13:40:38;96417.00;;;23.30
66299;BMP180;53098;47.658;8.578;2023-09-19T13:43:03;96418.00;;;23.70
66299;BMP180;53098;47.658;8.578;2023-09-19T13:45:29;96413.00;;;23.90
66299;BMP180;53098;47.658;8.578;2023-09-19T13:47:54;96404.00;;;24.00
66299;BMP180;53098;47.658;8.578;2023-09-19T13:50:20;96407.00;;;24.10
66299;BMP180;53098;47.658;8.578;2023-09-19T13:52:45;96404.00;;;24.30
66299;BMP180;53098;47.658;8.578;2023-09-19T13:55:11;96408.00;;;24.20
66299;BMP180;53098;47.658;8.578;2023-09-19T13:57:36;96413.00;;;24.20
66299;BMP180;53098;47.658;8.578;2023-09-19T14:00:02;96406.00;;;24.50
66299;BMP180;53098;47.658;8.578;2023-09-19T14:02:27;96398.00;;;24.60
66299;BMP180;53098;47.658;8.578;2023-09-19T14:04:53;96402.00;;;24.80
66299;BMP180;53098;47.658;8.578;2023-09-19T14:07:18;96401.00;;;24.70
66299;BMP180;53098;47.658;8.578;2023-09-19T14:09:44;96401.00;;;24.70
66299;BMP180;53098;47.658;8.578;2023-09-19T14:12:09;96408.00;;;24.60
66299;BMP180;53098;47.658;8.578;2023-09-19T14:14:35;96390.00;;;24.80
66299;BMP180;53098;47.658;8.578;2023-09-19T14:17:00;96400.00;;;24.90
66299;BMP180;53098;47.658;8.578;2023-09-19T14:19:29;96379.00;;;25.10
66299;BMP180;53098;47.658;8.578;2023-09-19T14:21:54;96383.00;;;25.30
66299;BMP180;53098;47.658;8.578;2023-09-19T14:24:20;96383.00;;;25.70
66299;BMP180;53098;47.658;8.578;2023-09-19T14:26:45;96377.00;;;26.30
66299;BMP180;53098;47.658;8.578;2023-09-19T14:29:11;96379.00;;;27.40
66299;BMP180;53098;47.658;8.578;2023-09-19T14:31:39;96367.00;;;29.00
66299;BMP180;53098;47.658;8.578;2023-09-19T14:34:05;96371.00;;;30.10
66299;BMP180;53098;47.658;8.578;2023-09-19T14:36:30;66629.00;;;30.50
66299;BMP180;53098;47.658;8.578;2023-09-19T14:38:56;96363.00;;;30.50
66299;BMP180;53098;47.658;8.578;2023-09-19T14:41:21;96369.00;;;31.30
66299;BMP180;53098;47.658;8.578;2023-09-19T14:43:47;96363.00;;;31.80
66299;BMP180;53098;47.658;8.578;2023-09-19T14:46:12;96362.00;;;32.00
66299;BMP180;53098;47.658;8.578;2023-09-19T14:48:38;96369.00;;;33.40
66299;BMP180;53098;47.658;8.578;2023-09-19T14:51:04;96363.00;;;33.40
66299;BMP180;53098;47.658;8.578;2023-09-19T14:53:33;96375.00;;;31.70
66299;BMP180;53098;47.658;8.578;2023-09-19T14:56:02;96369.00;;;29.90
66299;BMP180;53098;47.658;8.578;2023-09-19T14:58:28;96713.00;;;28.60
66299;BMP180;53098;47.658;8.578;2023-09-19T15:00:53;96375.00;;;27.80
66299;BMP180;53098;47.658;8.578;2023-09-19T15:03:19;96384.00;;;27.40